Time;durP1;ratioP1;P1;durP2;ratioP2;P2;SDS_P1;SDS_P2;PMS_P1;PMS_P2;Temp;Humidity;BMP_temperature;BMP_pressure;BME280_temperature;BME280_humidity;BME280_pressure;Samples;Min_cycle;Max_cycle;Signal;HPM_P1;HPM_P2
2022/10/13 00:01:09;;;;;;;15.52;6.78;;;;;;;13.77;60.67;101886.06;5085729;28;20592;-60
2022/10/13 00:03:38;;;;;;;13.13;6.45;;;;;;;13.76;61.02;101878.16;5085825;28;20131;-61
2022/10/13 00:06:09;;;;;;;13.85;6.65;;;;;;;13.76;61.16;101881.69;5081860;28;20487;-61
2022/10/13 00:08:39;;;;;;;11.43;5.88;;;;;;;13.67;60.89;101858.69;5081573;28;20046;-60
2022/10/13 00:11:11;;;;;;;10.68;6.00;;;;;;;13.75;61.28;101877.34;5085041;28;20040;-61
2022/10/13 00:13:40;;;;;;;12.27;6.47;;;;;;;13.75;61.16;101876.50;5081539;28;20052;-61
2022/10/13 00:16:09;;;;;;;10.63;5.72;;;;;;;13.75;61.34;101871.94;5074480;28;20104;-61
2022/10/13 00:18:37;;;;;;;10.38;6.10;;;;;;;13.75;60.83;101865.72;5084285;28;20048;-61
2022/10/13 00:21:07;;;;;;;13.30;5.63;;;;;;;13.74;60.78;101864.06;5085253;28;20115;-60
2022/10/13 00:23:35;;;;;;;15.20;6.43;;;;;;;13.73;61.19;101857.81;5084943;28;20073;-60
2022/10/13 00:26:07;;;;;;;13.85;6.20;;;;;;;13.73;61.16;101857.81;5086386;28;20052;-60
2022/10/13 00:28:35;;;;;;;8.70;5.70;;;;;;;13.74;61.03;101850.53;5078313;28;20063;-60
2022/10/13 00:31:04;;;;;;;10.85;6.18;;;;;;;13.73;61.07;101852.41;5086223;28;20045;-60
2022/10/13 00:33:32;;;;;;;9.63;6.10;;;;;;;13.73;61.17;101847.00;5078905;28;20140;-60
2022/10/13 00:35:59;;;;;;;10.88;6.10;;;;;;;13.73;61.15;101847.00;5085575;28;20525;-60
2022/10/13 00:38:27;;;;;;;11.45;7.00;;;;;;;13.73;61.53;101848.88;5085788;28;20055;-60
2022/10/13 00:40:56;;;;;;;10.10;6.10;;;;;;;13.72;61.68;101848.06;5087054;28;20052;-60
2022/10/13 00:43:27;;;;;;;18.35;6.70;;;;;;;13.64;61.26;101829.41;5077216;28;20135;-61
2022/10/13 00:45:55;;;;;;;10.75;6.07;;;;;;;13.71;61.42;101849.09;5087984;28;20134;-61
2022/10/13 00:48:26;;;;;;;11.85;5.68;;;;;;;13.71;61.39;101845.56;5081334;28;20045;-60
2022/10/13 00:50:55;;;;;;;12.07;6.93;;;;;;;13.70;61.65;101849.31;5081385;28;20061;-60
2022/10/13 00:53:27;;;;;;;8.77;5.70;;;;;;;13.70;61.49;101844.75;5084095;28;20111;-61
2022/10/13 00:55:55;;;;;;;11.02;5.55;;;;;;;13.70;61.64;101847.44;5085825;28;20051;-61
2022/10/13 00:58:30;;;;;;;10.32;5.40;;;;;;;13.68;61.45;101842.25;5088355;28;20048;-60
2022/10/13 01:00:59;;;;;;;10.77;5.75;;;;;;;13.67;61.54;101843.31;5077771;28;20073;-61
2022/10/13 01:03:27;;;;;;;14.07;6.30;;;;;;;13.53;61.54;101822.00;5076778;28;20044;-60
2022/10/13 01:05:58;;;;;;;10.63;5.38;;;;;;;13.67;61.61;101851.41;5082700;28;20058;-61
2022/10/13 01:08:27;;;;;;;10.48;5.45;;;;;;;13.66;61.56;101846.22;5068510;28;20076;-61
2022/10/13 01:11:02;;;;;;;11.13;5.90;;;;;;;13.66;61.73;101841.66;5083076;28;20040;-61
2022/10/13 01:13:38;;;;;;;11.10;5.95;;;;;;;13.66;61.64;101840.81;5074282;28;20055;-61
2022/10/13 01:16:12;;;;;;;10.45;5.30;;;;;;;13.64;61.86;101835.63;5079150;28;20055;-60
2022/10/13 01:18:48;;;;;;;10.80;6.40;;;;;;;13.64;62.12;101840.22;5081393;28;20145;-61
2022/10/13 01:21:24;;;;;;;8.45;4.70;;;;;;;13.64;61.80;101842.91;5080700;28;20442;-60
2022/10/13 01:24:34;;;;;;;10.63;5.70;;;;;;;13.63;61.70;101836.69;5080377;28;20047;-61
2022/10/13 01:27:10;;;;;;;9.98;4.93;;;;;;;13.63;62.01;101839.38;5082090;28;20314;-61
2022/10/13 01:30:05;;;;;;;10.88;5.25;;;;;;;13.63;62.06;101843.97;5073481;28;20087;-60
2022/10/13 01:32:46;;;;;;;9.15;5.30;;;;;;;13.62;62.20;101843.13;5084207;28;20049;-61
2022/10/13 01:35:20;;;;;;;10.13;5.57;;;;;;;13.61;62.24;101844.19;5079847;28;20132;-61
2022/10/13 01:37:55;;;;;;;12.07;5.57;;;;;;;13.61;62.19;101841.47;5075231;28;20058;-60
2022/10/13 01:40:27;;;;;;;14.15;6.03;;;;;;;13.61;61.89;101841.47;5087695;28;20055;-61
2022/10/13 01:42:58;;;;;;;10.63;5.55;;;;;;;13.60;62.06;101837.13;5081389;28;20059;-61
2022/10/13 01:45:33;;;;;;;8.90;5.40;;;;;;;13.61;61.81;101835.25;5079245;28;20044;-61
2022/10/13 01:48:04;;;;;;;10.65;5.22;;;;;;;13.61;62.08;101829.84;5083416;28;20048;-61
2022/10/13 01:50:36;;;;;;;14.73;5.95;;;;;;;13.61;62.02;101836.06;5084242;28;20052;-61
2022/10/13 01:53:07;;;;;;;10.02;5.20;;;;;;;13.60;61.78;101825.50;5083380;28;20044;-60
2022/10/13 01:55:35;;;;;;;9.40;4.90;;;;;;;13.61;62.08;101821.75;5082905;28;20040;-61
2022/10/13 01:58:02;;;;;;;9.93;5.63;;;;;;;13.60;61.95;101826.31;5077023;28;20052;-61
2022/10/13 02:00:43;;;;;;;8.55;5.10;;;;;;;13.61;61.91;101822.56;5079606;28;20074;-61
2022/10/13 02:03:17;;;;;;;8.30;4.57;;;;;;;13.60;61.71;101818.22;5083921;28;20078;-61
2022/10/13 02:05:49;;;;;;;8.25;4.95;;;;;;;13.62;61.65;101809.88;5084373;28;20052;-61
2022/10/13 02:08:25;;;;;;;9.82;5.25;;;;;;;13.61;61.69;101802.84;5077620;28;20048;-61
2022/10/13 02:10:58;;;;;;;11.32;4.30;;;;;;;13.61;62.22;101813.63;5082494;28;20054;-61
2022/10/13 02:13:29;;;;;;;10.38;5.22;;;;;;;13.61;62.13;101794.72;5083284;28;20063;-61
2022/10/13 02:16:01;;;;;;;10.82;5.70;;;;;;;13.61;62.04;101802.84;5076562;28;20064;-61
2022/10/13 02:18:33;;;;;;;10.68;4.60;;;;;;;13.61;61.87;101808.22;5081706;28;20056;-61
2022/10/13 02:21:02;;;;;;;8.30;4.70;;;;;;;13.62;62.11;101809.88;5075660;28;20046;-61
2022/10/13 02:23:31;;;;;;;8.32;4.53;;;;;;;13.60;62.28;101793.91;5090228;28;20048;-61
2022/10/13 02:26:00;;;;;;;6.60;4.20;;;;;;;13.60;62.29;101796.59;5078256;28;20045;-60
2022/10/13 02:28:28;;;;;;;15.55;5.97;;;;;;;13.60;62.32;101793.06;5090190;28;20060;-60
2022/10/13 02:30:56;;;;;;;12.68;5.35;;;;;;;13.60;62.36;101793.91;5087940;28;20052;-61
2022/10/13 02:33:26;;;;;;;11.48;5.90;;;;;;;13.60;61.96;101783.09;5084344;28;20136;-60
2022/10/13 02:35:53;;;;;;;8.18;4.75;;;;;;;13.59;61.97;101781.44;5073968;28;20051;-61
2022/10/13 02:38:21;;;;;;;10.77;4.82;;;;;;;13.59;61.92;101792.25;5084027;28;20044;-61
2022/10/13 02:40:49;;;;;;;7.75;4.93;;;;;;;13.58;62.35;101785.19;5081074;28;20049;-60
2022/10/13 02:43:17;;;;;;;8.20;4.68;;;;;;;13.58;62.20;101781.66;5075857;28;20534;-60
2022/10/13 02:45:45;;;;;;;8.60;4.97;;;;;;;13.58;62.26;101782.50;5086260;28;20048;-61
2022/10/13 02:48:13;;;;;;;10.07;5.07;;;;;;;13.58;62.16;101781.66;5077231;28;20045;-61
2022/10/13 02:50:42;;;;;;;11.68;4.80;;;;;;;13.57;62.31;101777.31;5087841;28;20131;-61
2022/10/13 02:53:14;;;;;;;8.85;4.93;;;;;;;13.56;62.11;101776.47;5086038;28;20064;-60
2022/10/13 02:55:42;;;;;;;8.10;5.00;;;;;;;13.56;62.45;101772.94;5088020;28;20052;-61
2022/10/13 02:58:09;;;;;;;8.38;5.10;;;;;;;13.55;62.35;101774.81;5082450;28;20044;-61
2022/10/13 03:00:38;;;;;;;8.20;4.88;;;;;;;13.55;62.38;101763.19;5083024;28;20048;-61
2022/10/13 03:03:06;;;;;;;8.40;4.55;;;;;;;13.54;62.52;101770.47;5085718;28;20116;-61
2022/10/13 03:05:34;;;;;;;7.68;5.07;;;;;;;13.54;62.10;101767.75;5084412;28;20041;-62
2022/10/13 03:08:03;;;;;;;9.18;4.88;;;;;;;13.54;62.25;101770.47;5085930;28;20051;-64
2022/10/13 03:10:31;;;;;;;7.00;4.30;;;;;;;13.53;62.29;101768.81;5084018;28;20050;-63
2022/10/13 03:12:59;;;;;;;7.32;4.35;;;;;;;13.54;62.22;101773.16;5070612;28;20059;-61
2022/10/13 03:15:27;;;;;;;10.77;5.43;;;;;;;13.50;62.04;101765.72;5090522;28;20048;-61
2022/10/13 03:17:55;;;;;;;8.13;4.78;;;;;;;13.53;62.28;101766.13;5081696;28;20044;-61
2022/10/13 03:20:23;;;;;;;7.80;4.43;;;;;;;13.53;62.33;101766.13;5083370;28;20108;-61
2022/10/13 03:22:51;;;;;;;8.50;4.55;;;;;;;13.53;62.22;101763.41;5085186;28;20056;-61
2022/10/13 03:25:20;;;;;;;9.13;4.90;;;;;;;13.53;62.33;101765.28;5086398;28;20489;-61
2022/10/13 03:27:48;;;;;;;6.57;4.10;;;;;;;13.53;62.50;101762.59;5082213;28;20056;-61
2022/10/13 03:30:16;;;;;;;6.72;3.90;;;;;;;13.52;62.57;101753.66;5085048;28;20063;-61
2022/10/13 03:32:44;;;;;;;15.60;4.90;;;;;;;13.50;61.97;101754.91;5084574;28;20062;-60
2022/10/13 03:35:12;;;;;;;7.97;4.35;;;;;;;13.52;61.96;101750.97;5086740;28;20055;-60
2022/10/13 03:37:40;;;;;;;8.57;4.63;;;;;;;13.51;62.17;101748.47;5085953;28;20045;-60
2022/10/13 03:40:09;;;;;;;8.70;4.30;;;;;;;13.52;62.50;101750.13;5078912;28;20230;-60
2022/10/13 03:42:39;;;;;;;7.45;4.53;;;;;;;13.51;62.03;101743.06;5078893;28;20116;-60
2022/10/13 03:45:09;;;;;;;10.68;4.40;;;;;;;13.51;62.46;101740.38;5085209;28;20048;-60
2022/10/13 03:47:37;;;;;;;8.85;4.40;;;;;;;13.50;62.60;101753.03;5084060;28;20048;-60
2022/10/13 03:50:06;;;;;;;11.30;5.40;;;;;;;13.52;62.76;101750.13;5084575;28;20045;-60
2022/10/13 03:52:34;;;;;;;11.18;5.20;;;;;;;13.51;62.64;101741.19;5090709;28;20103;-60
2022/10/13 03:55:02;;;;;;;9.48;4.80;;;;;;;13.50;62.47;101744.94;5077250;28;20135;-61
2022/10/13 03:57:30;;;;;;;7.80;4.13;;;;;;;13.53;62.46;101746.38;5078714;28;20040;-61
2022/10/13 03:59:59;;;;;;;10.35;4.57;;;;;;;13.52;62.82;101747.44;5079911;28;20052;-60
2022/10/13 04:02:27;;;;;;;8.82;4.22;;;;;;;13.52;62.75;101736.63;5081262;28;20076;-60
2022/10/13 04:04:55;;;;;;;10.32;4.82;;;;;;;13.52;62.24;101732.06;5086157;28;20052;-60
2022/10/13 04:07:23;;;;;;;8.10;4.40;;;;;;;13.52;62.50;101726.66;5079200;28;20052;-60
2022/10/13 04:09:51;;;;;;;8.07;4.57;;;;;;;13.51;62.41;101732.28;5083641;28;20060;-60
2022/10/13 04:12:18;;;;;;;9.20;4.80;;;;;;;13.52;62.55;101725.81;5083977;28;20051;-61
2022/10/13 04:14:47;;;;;;;7.35;4.68;;;;;;;13.52;62.33;101726.66;5091987;28;20056;-61
2022/10/13 04:17:17;;;;;;;8.45;4.25;;;;;;;13.50;62.44;101734.16;5081672;28;20139;-61
2022/10/13 04:19:44;;;;;;;9.27;4.30;;;;;;;13.51;62.48;101734.97;5083714;28;20049;-61
2022/10/13 04:22:12;;;;;;;6.65;4.50;;;;;;;13.53;62.39;101738.28;5080735;28;20066;-61
2022/10/13 04:24:40;;;;;;;10.70;5.00;;;;;;;13.50;62.94;101726.03;5086025;28;20045;-61
2022/10/13 04:27:08;;;;;;;8.35;4.28;;;;;;;13.51;62.88;101734.97;5086365;28;20049;-61
2022/10/13 04:29:36;;;;;;;6.40;4.38;;;;;;;13.51;62.51;101724.16;5081729;28;20059;-61
2022/10/13 04:32:05;;;;;;;8.80;4.90;;;;;;;13.50;62.35;101712.53;5085474;28;20158;-61
2022/10/13 04:34:34;;;;;;;12.85;4.30;;;;;;;13.50;62.53;101712.53;5085915;28;20083;-61
2022/10/13 04:37:02;;;;;;;7.20;3.97;;;;;;;13.50;62.82;101704.44;5085261;28;20052;-60
2022/10/13 04:39:30;;;;;;;8.73;4.38;;;;;;;13.49;62.24;101691.97;5083873;28;20414;-61
2022/10/13 04:41:57;;;;;;;6.13;3.50;;;;;;;13.49;62.51;101697.38;5085050;28;20052;-61
2022/10/13 04:44:25;;;;;;;6.40;3.97;;;;;;;13.48;62.19;101700.31;5076506;28;20064;-61
2022/10/13 04:46:53;;;;;;;10.75;4.97;;;;;;;13.49;62.59;101697.38;5080740;28;20056;-60
2022/10/13 04:49:21;;;;;;;7.72;4.40;;;;;;;13.47;62.67;101696.78;5088789;28;20453;-61
2022/10/13 04:51:50;;;;;;;9.80;4.70;;;;;;;13.49;62.92;101699.25;5084479;28;20131;-61
2022/10/13 04:54:18;;;;;;;7.97;4.88;;;;;;;13.48;62.84;101695.72;5084761;28;20104;-62
2022/10/13 04:56:45;;;;;;;7.03;4.68;;;;;;;13.48;62.33;101700.31;5083627;28;20123;-63
2022/10/13 04:59:13;;;;;;;8.82;4.68;;;;;;;13.47;62.54;101691.38;5079259;28;20040;-63
2022/10/13 05:01:41;;;;;;;7.18;4.57;;;;;;;13.47;62.73;101687.84;5074144;28;20063;-61
2022/10/13 05:04:10;;;;;;;9.38;4.43;;;;;;;13.46;62.54;101695.13;5082836;28;20391;-61
2022/10/13 05:06:40;;;;;;;10.43;4.85;;;;;;;13.46;62.78;101683.50;5079620;28;20041;-62
2022/10/13 05:09:29;;;;;;;9.68;5.78;;;;;;;13.47;62.48;101691.38;5082969;28;20142;-61
2022/10/13 05:11:57;;;;;;;7.88;4.30;;;;;;;13.46;62.96;101691.59;5085440;28;20112;-61
2022/10/13 05:14:24;;;;;;;9.55;4.22;;;;;;;13.47;62.44;101710.28;5074772;28;20053;-62
2022/10/13 05:16:53;;;;;;;11.75;4.38;;;;;;;13.46;62.58;101688.91;5083621;28;20064;-60
2022/10/13 05:19:20;;;;;;;9.85;5.10;;;;;;;13.45;62.90;101690.78;5081100;28;20143;-60
2022/10/13 05:21:48;;;;;;;12.25;4.70;;;;;;;13.46;62.65;101688.91;5070698;28;20067;-60
2022/10/13 05:24:16;;;;;;;10.02;4.85;;;;;;;13.45;62.62;101696.16;5083974;28;20067;-61
2022/10/13 05:26:45;;;;;;;11.05;4.65;;;;;;;13.45;62.44;101701.56;5083842;28;20494;-59
2022/10/13 05:29:13;;;;;;;7.82;4.70;;;;;;;13.45;62.46;101698.88;5083237;28;20044;-63
2022/10/13 05:31:40;;;;;;;8.40;4.30;;;;;;;13.46;62.71;101689.72;5078979;28;20044;-62
2022/10/13 05:34:09;;;;;;;12.85;6.05;;;;;;;13.45;62.94;101693.47;5082297;28;20048;-61
2022/10/13 05:36:36;;;;;;;9.00;4.82;;;;;;;13.46;63.11;101699.69;4729155;28;10000108;-62
2022/10/13 05:39:07;;;;;;;12.93;5.03;;;;;;;13.46;62.89;101710.50;5080007;28;20304;-63
2022/10/13 05:41:35;;;;;;;10.95;4.53;;;;;;;13.46;63.02;101710.50;5078911;28;20063;-60
2022/10/13 05:44:08;;;;;;;10.73;5.63;;;;;;;13.47;63.14;101702.19;5077821;28;20052;-61
2022/10/13 05:46:36;;;;;;;10.07;4.45;;;;;;;13.47;62.68;101706.75;5076527;28;20076;-61
2022/10/13 05:49:04;;;;;;;8.73;4.90;;;;;;;13.46;62.79;101705.09;5083952;28;20040;-59
2022/10/13 05:51:35;;;;;;;10.88;5.53;;;;;;;13.46;62.72;101695.13;5080593;28;20052;-60
2022/10/13 05:54:06;;;;;;;7.43;5.05;;;;;;;13.47;63.06;101707.56;5068586;28;20060;-60
2022/10/13 05:56:40;;;;;;;10.15;4.60;;;;;;;13.46;62.79;101697.81;5066504;28;20090;-62
2022/10/13 05:59:13;;;;;;;9.63;5.22;;;;;;;13.47;62.77;101699.47;5076659;28;20058;-63
2022/10/13 06:01:43;;;;;;;9.15;5.38;;;;;;;13.47;62.55;101690.53;5078845;28;20056;-61
2022/10/13 06:04:14;;;;;;;8.57;5.05;;;;;;;13.47;62.95;101698.66;5076679;28;20576;-61
2022/10/13 06:06:42;;;;;;;8.45;4.55;;;;;;;13.45;62.42;101682.66;5079628;28;20052;-63
2022/10/13 06:09:10;;;;;;;8.77;5.35;;;;;;;13.46;63.20;101684.31;5069364;28;20055;-59
2022/10/13 06:11:38;;;;;;;8.05;4.40;;;;;;;13.47;62.76;101685.16;5077744;28;20044;-64
2022/10/13 06:14:06;;;;;;;12.27;5.75;;;;;;;13.45;63.27;101682.66;5082506;28;20502;-60
2022/10/13 06:16:36;;;;;;;8.90;5.22;;;;;;;13.45;63.61;101681.84;5082338;28;20044;-60
2022/10/13 06:19:04;;;;;;;14.10;5.30;;;;;;;13.46;63.55;101683.50;5074062;28;20127;-60
2022/10/13 06:21:35;;;;;;;9.85;5.07;;;;;;;13.37;63.14;101660.50;5083139;28;20048;-60
2022/10/13 06:24:03;;;;;;;9.13;5.20;;;;;;;13.46;63.43;101684.31;5083322;28;20058;-59
2022/10/13 06:26:31;;;;;;;9.32;4.60;;;;;;;13.46;62.98;101672.69;5082892;28;20049;-60
2022/10/13 06:28:58;;;;;;;10.55;4.43;;;;;;;13.46;62.75;101670.81;5080318;28;20140;-58
2022/10/13 06:31:27;;;;;;;9.25;4.55;;;;;;;13.40;62.77;101652.81;5071831;28;20080;-59
2022/10/13 06:33:56;;;;;;;9.27;4.70;;;;;;;13.47;62.71;101656.25;5084232;28;20063;-59
2022/10/13 06:36:24;;;;;;;9.65;4.80;;;;;;;13.46;63.09;101662.72;5074290;28;20076;-59
2022/10/13 06:38:52;;;;;;;7.88;4.80;;;;;;;13.47;62.60;101663.53;5084013;28;20120;-60
2022/10/13 06:41:19;;;;;;;8.95;4.78;;;;;;;13.47;63.11;101668.94;5084347;28;20057;-59
2022/10/13 06:43:48;;;;;;;8.02;4.22;;;;;;;13.46;63.04;101668.13;5083316;28;20355;-59
2022/10/13 06:46:16;;;;;;;9.43;4.85;;;;;;;13.46;62.88;101668.13;5080516;28;20136;-59
2022/10/13 06:48:44;;;;;;;9.02;4.47;;;;;;;13.46;62.72;101670.00;5075904;28;20040;-59
2022/10/13 06:51:13;;;;;;;8.40;4.63;;;;;;;13.46;63.07;101664.59;5083154;28;20080;-59
2022/10/13 06:53:41;;;;;;;7.10;4.47;;;;;;;13.48;62.96;101665.19;5071776;28;20125;-60
2022/10/13 06:56:09;;;;;;;8.82;4.22;;;;;;;13.47;62.96;101667.06;5082636;28;20047;-59
2022/10/13 06:58:37;;;;;;;10.52;5.40;;;;;;;13.48;63.20;101665.19;5078008;28;20124;-59
2022/10/13 07:01:06;;;;;;;10.90;5.50;;;;;;;13.47;62.87;101667.06;5075694;28;20382;-59
2022/10/13 07:03:34;;;;;;;9.73;5.28;;;;;;;13.47;63.21;101680.56;5079494;28;20049;-61
2022/10/13 07:06:02;;;;;;;7.95;4.82;;;;;;;13.48;62.93;101684.94;5082153;28;20052;-63
2022/10/13 07:08:33;;;;;;;11.73;4.78;;;;;;;13.48;63.14;101676.81;5082991;28;20052;-64
2022/10/13 07:11:06;;;;;;;11.18;4.50;;;;;;;13.48;63.16;101676.00;5081387;28;20056;-64
2022/10/13 07:13:42;;;;;;;11.05;4.30;;;;;;;13.51;63.33;101670.16;5082706;28;20052;-62
2022/10/13 07:16:14;;;;;;;8.10;4.82;;;;;;;13.51;63.21;101670.16;5079628;28;20056;-60
2022/10/13 07:18:42;;;;;;;8.38;4.68;;;;;;;13.52;62.96;101675.34;5076284;28;20048;-60
2022/10/13 07:21:10;;;;;;;8.57;5.05;;;;;;;13.54;63.09;101669.72;5078329;28;20059;-60
2022/10/13 07:23:39;;;;;;;11.02;5.28;;;;;;;13.54;63.02;101678.63;5078495;28;20056;-60
2022/10/13 07:26:08;;;;;;;11.68;4.95;;;;;;;13.52;63.22;101672.63;5081178;28;20139;-60
2022/10/13 07:28:36;;;;;;;11.15;6.18;;;;;;;13.55;63.04;101680.28;5079396;28;20121;-62
2022/10/13 07:31:09;;;;;;;9.63;5.10;;;;;;;13.56;63.24;101678.41;5083032;28;20106;-61
2022/10/13 07:33:38;;;;;;;12.07;5.22;;;;;;;13.56;63.07;101679.25;5086292;28;20154;-62
2022/10/13 07:36:06;;;;;;;11.35;5.20;;;;;;;13.58;63.10;101679.84;5085831;28;20048;-64
2022/10/13 07:38:34;;;;;;;8.80;5.88;;;;;;;13.59;63.16;101681.50;5089389;28;20140;-60
2022/10/13 07:41:06;;;;;;;12.75;5.72;;;;;;;13.48;63.11;101666.03;5085948;28;20051;-60
2022/10/13 07:43:34;;;;;;;8.90;5.28;;;;;;;13.58;63.08;101684.44;5077172;28;20044;-61
2022/10/13 07:46:04;;;;;;;13.15;5.85;;;;;;;13.57;63.23;101675.50;5083009;28;20163;-60
2022/10/13 07:48:32;;;;;;;10.32;5.20;;;;;;;13.58;62.87;101677.16;5084615;28;20074;-59
2022/10/13 07:51:03;;;;;;;12.65;6.68;;;;;;;13.62;63.61;101678.38;5080689;28;20048;-61
2022/10/13 07:53:31;;;;;;;11.30;6.07;;;;;;;13.62;63.58;101670.25;5082963;28;20116;-61
2022/10/13 07:56:00;;;;;;;12.85;5.93;;;;;;;13.64;63.04;101672.75;5081740;28;20366;-61
2022/10/13 07:58:29;;;;;;;13.10;6.20;;;;;;;13.63;63.12;101674.63;5083498;28;20108;-61
2022/10/13 08:00:58;;;;;;;8.70;5.15;;;;;;;13.63;63.31;101666.50;5082633;28;20041;-61
2022/10/13 08:03:27;;;;;;;10.25;5.88;;;;;;;13.63;63.77;101671.91;5084697;28;20139;-61
2022/10/13 08:05:55;;;;;;;13.35;6.63;;;;;;;13.63;63.31;101668.38;5082816;28;20044;-61
2022/10/13 08:08:23;;;;;;;9.00;6.20;;;;;;;13.65;63.88;101671.69;5067234;28;20076;-61
2022/10/13 08:10:51;;;;;;;9.95;5.65;;;;;;;13.66;63.35;101673.34;5073471;28;20064;-61
2022/10/13 08:13:22;;;;;;;10.85;5.50;;;;;;;13.66;64.03;101667.94;5085575;28;20431;-59
2022/10/13 08:15:51;;;;;;;12.00;6.90;;;;;;;13.67;63.77;101669.59;5079478;28;20054;-60
2022/10/13 08:18:19;;;;;;;11.10;5.80;;;;;;;13.72;63.70;101668.94;5085078;28;20446;-59
2022/10/13 08:20:46;;;;;;;10.07;6.10;;;;;;;13.70;63.29;101662.91;5082066;28;20045;-62
2022/10/13 08:23:14;;;;;;;11.70;5.60;;;;;;;13.70;63.53;101657.50;5083400;28;20421;-66
2022/10/13 08:25:43;;;;;;;9.93;6.55;;;;;;;13.68;63.65;101669.38;5083758;28;20052;-62
2022/10/13 08:28:17;;;;;;;12.43;6.13;;;;;;;13.63;63.68;101652.19;5081424;28;20060;-62
2022/10/13 08:30:46;;;;;;;11.73;6.95;;;;;;;13.70;63.37;101666.44;5081830;28;20044;-62
2022/10/13 08:33:16;;;;;;;11.25;5.57;;;;;;;13.71;63.46;101654.59;5085007;28;20120;-61
2022/10/13 08:35:43;;;;;;;11.55;6.95;;;;;;;13.72;63.76;101647.31;5081690;28;20051;-62
2022/10/13 08:38:11;;;;;;;14.55;7.30;;;;;;;13.74;64.38;101658.72;5082903;28;20052;-61
2022/10/13 08:40:40;;;;;;;13.60;6.50;;;;;;;13.76;63.99;101662.03;5085174;28;20057;-61
2022/10/13 08:43:09;;;;;;;9.65;6.30;;;;;;;13.77;64.15;101659.09;5083780;28;20044;-61
2022/10/13 08:45:36;;;;;;;10.73;6.07;;;;;;;13.77;63.60;101663.69;5081484;28;20040;-61
2022/10/13 08:48:12;;;;;;;15.88;6.88;;;;;;;13.76;64.06;101659.34;5078731;28;20091;-61
2022/10/13 08:50:44;;;;;;;9.35;6.60;;;;;;;13.76;63.93;101656.63;5081343;28;20108;-61
2022/10/13 08:53:17;;;;;;;10.10;5.97;;;;;;;13.74;63.77;101659.56;5083018;28;20596;-61
2022/10/13 08:55:48;;;;;;;12.43;6.25;;;;;;;13.74;64.54;101656.84;5081165;28;20055;-61
2022/10/13 08:58:25;;;;;;;10.52;6.10;;;;;;;13.76;63.99;101653.94;5079776;28;20049;-61
2022/10/13 09:01:05;;;;;;;15.27;6.13;;;;;;;13.76;64.06;101653.94;5081977;28;20108;-60
2022/10/13 09:03:42;;;;;;;9.20;5.55;;;;;;;13.76;64.34;101656.63;5080804;28;20055;-61
2022/10/13 09:06:15;;;;;;;12.98;5.82;;;;;;;13.75;64.06;101650.41;5080480;28;20074;-59
2022/10/13 09:08:48;;;;;;;9.10;5.53;;;;;;;13.76;64.00;101646.66;5083135;28;20056;-59
2022/10/13 09:11:16;;;;;;;11.35;5.72;;;;;;;13.76;64.19;101652.06;5080313;28;20055;-59
2022/10/13 09:13:44;;;;;;;11.38;5.28;;;;;;;13.75;64.69;101645.00;5083734;28;20525;-59
2022/10/13 09:16:12;;;;;;;7.75;5.60;;;;;;;13.74;64.33;101640.63;5076654;28;20059;-58
2022/10/13 09:18:40;;;;;;;12.90;5.90;;;;;;;13.75;64.45;101642.28;5077174;28;20135;-59
2022/10/13 09:21:28;;;;;;;9.52;5.10;;;;;;;13.75;64.45;101639.59;5072817;28;20055;-59
2022/10/13 09:24:07;;;;;;;16.33;5.63;;;;;;;13.70;64.29;101628.63;5074437;28;20052;-59
2022/10/13 09:26:38;;;;;;;11.98;5.72;;;;;;;13.78;64.72;101639.16;5081559;28;20117;-60
2022/10/13 09:29:09;;;;;;;9.32;5.40;;;;;;;13.78;64.51;101639.16;5078147;28;20052;-60
2022/10/13 09:31:37;;;;;;;10.48;5.35;;;;;;;13.78;64.71;101636.44;5081695;28;20113;-60
2022/10/13 09:34:23;;;;;;;10.85;5.07;;;;;;;13.80;64.04;101641.63;5083751;28;20050;-60
2022/10/13 09:37:00;;;;;;;11.43;4.97;;;;;;;13.81;64.02;101640.56;5078361;28;20045;-60
2022/10/13 09:39:29;;;;;;;11.88;4.70;;;;;;;13.81;64.29;101644.09;5082589;28;20513;-60
2022/10/13 09:42:20;;;;;;;8.85;4.40;;;;;;;13.82;64.21;101636.81;5084782;28;20118;-60
2022/10/13 09:44:57;;;;;;;7.32;5.00;;;;;;;13.82;64.18;101621.44;5076806;28;20045;-61
2022/10/13 09:47:27;;;;;;;9.35;4.25;;;;;;;13.82;64.55;101624.13;5082450;28;20053;-61
2022/10/13 09:50:14;;;;;;;8.90;4.90;;;;;;;13.75;64.01;101606.34;5072471;28;20051;-60
2022/10/13 09:52:44;;;;;;;8.43;4.10;;;;;;;13.82;63.94;101621.44;5078219;28;20059;-62
2022/10/13 09:55:29;;;;;;;8.95;4.97;;;;;;;13.84;64.14;101623.91;5083169;28;20066;-65
2022/10/13 09:58:06;;;;;;;15.70;5.45;;;;;;;13.83;64.14;101617.69;5078118;28;20482;-61
2022/10/13 10:00:33;;;;;;;7.50;4.25;;;;;;;13.84;64.03;101623.91;5083696;28;20044;-60
2022/10/13 10:03:06;;;;;;;7.20;4.18;;;;;;;13.84;64.34;101613.94;5071800;28;20048;-60
2022/10/13 10:05:44;;;;;;;6.13;3.95;;;;;;;13.84;63.99;101622.03;5085139;28;20079;-61
2022/10/13 10:08:20;;;;;;;7.40;4.28;;;;;;;13.87;64.58;101615.31;5076118;28;20112;-62
2022/10/13 10:11:03;;;;;;;7.60;3.90;;;;;;;13.94;64.16;101613.38;4730531;28;10000185;-62
2022/10/13 10:13:31;;;;;;;8.20;4.25;;;;;;;14.08;63.93;101611.34;5090944;28;20464;-61
2022/10/13 10:16:05;;;;;;;8.75;4.43;;;;;;;14.26;63.02;101605.91;5076083;28;20044;-62
2022/10/13 10:18:39;;;;;;;7.90;4.03;;;;;;;14.43;62.29;101604.28;5066545;28;20036;-62
2022/10/13 10:21:13;;;;;;;6.95;4.28;;;;;;;14.63;61.99;101604.00;5076443;28;20104;-62
2022/10/13 10:23:51;;;;;;;8.85;3.97;;;;;;;14.82;61.29;101602.06;5082964;28;20060;-62
2022/10/13 10:26:22;;;;;;;11.88;4.82;;;;;;;14.83;60.76;101588.28;5080820;28;20051;-62
2022/10/13 10:29:10;;;;;;;8.57;4.00;;;;;;;14.90;61.11;101596.31;5083659;28;20129;-62
2022/10/13 10:31:57;;;;;;;5.88;3.65;;;;;;;14.83;60.91;101607.22;5073955;28;20045;-62
2022/10/13 10:34:33;;;;;;;6.97;4.40;;;;;;;14.74;61.50;101605.09;5072153;28;20139;-62
2022/10/13 10:37:13;;;;;;;8.13;4.10;;;;;;;14.63;62.12;101602.13;5082905;28;20050;-61
2022/10/13 10:39:47;;;;;;;6.97;3.58;;;;;;;14.56;62.25;101604.09;5072274;28;20525;-62
2022/10/13 10:42:45;;;;;;;5.95;3.80;;;;;;;14.50;62.34;101606.88;5067505;28;20045;-61
2022/10/13 10:45:22;;;;;;;6.95;3.53;;;;;;;14.47;62.84;101594.66;5079545;28;20052;-62
2022/10/13 10:47:53;;;;;;;9.02;4.20;;;;;;;14.43;62.97;101601.56;5080191;28;20364;-62
2022/10/13 10:50:22;;;;;;;9.93;4.43;;;;;;;14.41;62.66;101595.53;5081102;28;20066;-62
2022/10/13 10:52:57;;;;;;;7.03;3.28;;;;;;;14.39;62.93;101605.75;5088791;28;20048;-62
2022/10/13 10:55:32;;;;;;;7.13;3.67;;;;;;;14.35;62.89;101596.44;5081178;28;20056;-61
2022/10/13 10:58:12;;;;;;;6.85;3.85;;;;;;;14.34;62.92;101592.09;5076670;28;20462;-62
2022/10/13 11:00:48;;;;;;;12.90;4.53;;;;;;;14.33;63.13;101593.13;5078036;28;20063;-62
2022/10/13 11:03:26;;;;;;;5.40;3.17;;;;;;;14.31;63.66;101593.38;5084229;28;20056;-61
2022/10/13 11:06:06;;;;;;;5.55;3.78;;;;;;;14.32;63.43;101603.13;5076166;28;20052;-62
2022/10/13 11:08:41;;;;;;;6.95;3.92;;;;;;;14.30;63.27;101588.19;5081725;28;20127;-62
2022/10/13 11:11:38;;;;;;;7.18;3.22;;;;;;;14.30;63.51;101593.59;5083903;28;20155;-61
2022/10/13 11:14:30;;;;;;;6.45;3.58;;;;;;;14.29;63.58;101590.06;5010316;28;20057;-62
2022/10/13 11:17:16;;;;;;;5.80;3.70;;;;;;;14.28;64.02;101590.28;5019619;28;20065;-61
2022/10/13 11:19:46;;;;;;;6.82;3.58;;;;;;;14.26;63.91;101577.00;5013562;28;20058;-63
2022/10/13 11:22:17;;;;;;;7.28;4.22;;;;;;;14.26;65.06;101582.41;5022215;28;20049;-63
2022/10/13 11:24:58;;;;;;;11.77;5.60;;;;;;;14.24;65.83;101576.41;5023811;28;20064;-63
2022/10/13 11:27:39;;;;;;;11.00;4.35;;;;;;;14.22;64.92;101578.50;5016541;28;20046;-62
2022/10/13 11:30:49;;;;;;;9.63;4.82;;;;;;;14.23;66.52;101568.53;5020610;28;20061;-62
2022/10/13 11:33:51;;;;;;;10.27;5.28;;;;;;;14.21;66.22;101571.47;5018597;28;20046;-62
2022/10/13 11:36:36;;;;;;;12.95;4.78;;;;;;;14.21;67.02;101566.06;5018355;28;20050;-63
2022/10/13 11:39:34;;;;;;;9.48;5.72;;;;;;;14.21;67.35;101573.34;5020321;28;20053;-63
2022/10/13 11:42:15;;;;;;;12.43;5.22;;;;;;;14.20;66.88;101566.28;5010634;28;20054;-63